LFMP/PGF METAR and TAF weather

Enter ICAO airport designator
Station Type Date Time Source
LFMP METAR 2019/06/18 14:30 UTC NOAA

LFMP 181430Z AUTO 05010KT 9999 NCD 26/17 Q1011 NOSIG


Station Type Date Time Source
LFMP Decoded METAR 2019/06/18 14:30 UTC NOAA

Perpignan, France (LFMP) 42-44N 002-52E 48M
Jun 18, 2019 - 10:30 AM EDT / 2019.06.18 1430 UTC
Wind: from the NE (050 degrees) at 12 MPH (10 KT):0
Visibility: greater than 7 mile(s):0
Temperature: 78 F (26 C)
Dew Point: 62 F (17 C)
Relative Humidity: 57%
Pressure (altimeter): 29.85 in. Hg (1011 hPa)
ob: LFMP 181430Z AUTO 05010KT 9999 NCD 26/17 Q1011 NOSIG
cycle: 14

Station Type Date Time Source
LFMP TAF 2019/06/18 15:21 UTC NOAA

TAF TAF LFMP 181400Z 1815/1915 04010KT CAVOK
BECMG 1820/1822 VRB04KT
BECMG 1911/1913 12010KT

Example: see airport list